;
Station Historical Data
Daily Summary for October 12, 2018 Units:  Both    English   Metric
Next Day »
Daily Weekly Monthly Yearly Custom
  High: Low: Average:
Temperature: 61.5 °F /  16.4 °C 39.2 °F /  4 °C 49.6 °F /  9.8 °C
Dew Point: 50.6 °F /  10.3 °C 37.3 °F /  2.9 °C 44.1 °F /  6.7 °C
Humidity: 93% 60% 82%
Wind Speed: 6.9mph /  11.1km/h - 0.9mph /  1.4km/h
Wind Gust: 5mph /  8km/h - -
Wind- - SW
Pressure: 30.15 in /  1020.9 hPa 30.08 in /  1018.5 hPa -
Precipitation: 0 in /  0 mm    
Historical Graphs
 
 
Tabular Data for October 12, 2018
Time Temperature Dew Point Pressure Wind Wind Speed Wind Gust Humidity Rainfall Rate (Hourly)
00:04 43.9 °F /  6.6 °C 42 °F /  5.6 °C 30.14in /  1020.5hPa Calm     93% 0in /  0mm
00:09 44.2 °F /  6.8 °C 42.3 °F /  5.7 °C 30.14in /  1020.5hPa SSE 1.2mph /  1.9km/h   93% 0in /  0mm
00:14 45 °F /  7.2 °C 43.1 °F /  6.2 °C 30.14in /  1020.5hPa Calm     93% 0in /  0mm
00:19 45.1 °F /  7.3 °C 42.7 °F /  5.9 °C 30.14in /  1020.5hPa Calm     91% 0in /  0mm
00:24 45.5 °F /  7.5 °C 43 °F /  6.1 °C 30.14in /  1020.5hPa Calm     91% 0in /  0mm
00:29 45.9 °F /  7.7 °C 42.8 °F /  6 °C 30.14in /  1020.5hPa South 1.8mph /  2.9km/h   89% 0in /  0mm
00:34 46 °F /  7.8 °C 43 °F /  6.1 °C 30.14in /  1020.5hPa Calm     89% 0in /  0mm
00:39 45.9 °F /  7.7 °C 42.5 °F /  5.8 °C 30.14in /  1020.5hPa Calm     88% 0in /  0mm
00:44 45.7 °F /  7.6 °C 42.3 °F /  5.7 °C 30.14in /  1020.5hPa Calm     88% 0in /  0mm
00:49 45.3 °F /  7.4 °C 42.3 °F /  5.7 °C 30.14in /  1020.5hPa Calm     89% 0in /  0mm
00:54 45.3 °F /  7.4 °C 42.3 °F /  5.7 °C 30.14in /  1020.5hPa South 2.3mph /  3.7km/h   89% 0in /  0mm
00:59 45.1 °F /  7.3 °C 42.1 °F /  5.6 °C 30.14in /  1020.5hPa Calm     89% 0in /  0mm
01:04 45.3 °F /  7.4 °C 42.6 °F /  5.9 °C 30.14in /  1020.5hPa Calm     90% 0in /  0mm
01:09 45.3 °F /  7.4 °C 42.3 °F /  5.7 °C 30.14in /  1020.5hPa Calm     89% 0in /  0mm
01:14 45.7 °F /  7.6 °C 42.6 °F /  5.9 °C 30.14in /  1020.5hPa Calm     89% 0in /  0mm
01:19 45.5 °F /  7.5 °C 42.2 °F /  5.7 °C 30.14in /  1020.5hPa Calm     88% 0in /  0mm
01:24 45.3 °F /  7.4 °C 42.3 °F /  5.7 °C 30.14in /  1020.5hPa Calm     89% 0in /  0mm
01:29 45.3 °F /  7.4 °C 42.3 °F /  5.7 °C 30.14in /  1020.5hPa Calm     89% 0in /  0mm
01:34 45.1 °F /  7.3 °C 42.1 °F /  5.6 °C 30.14in /  1020.5hPa Calm     89% 0in /  0mm
01:39 45.1 °F /  7.3 °C 42.1 °F /  5.6 °C 30.14in /  1020.5hPa Calm     89% 0in /  0mm
01:44 45 °F /  7.2 °C 41.9 °F /  5.5 °C 30.14in /  1020.5hPa Calm     89% 0in /  0mm
01:49 45 °F /  7.2 °C 42.2 °F /  5.7 °C 30.14in /  1020.5hPa Calm     90% 0in /  0mm
01:54 45.1 °F /  7.3 °C 42.1 °F /  5.6 °C 30.14in /  1020.5hPa Calm     89% 0in /  0mm
01:59 45.1 °F /  7.3 °C 42.1 °F /  5.6 °C 30.14in /  1020.5hPa Calm     89% 0in /  0mm
02:01 45.3 °F /  7.4 °C 42.3 °F /  5.7 °C 30.14in /  1020.5hPa Calm     89% 0in /  0mm
02:15 45.7 °F /  7.6 °C 42.3 °F /  5.7 °C 30.14in /  1020.5hPa Calm   5mph /  8km/h 88% 0in /  0mm
02:20 45.9 °F /  7.7 °C 41.9 °F /  5.5 °C 30.14in /  1020.5hPa Calm   2mph /  3.2km/h 86% 0in /  0mm
02:25 46.1 °F /  7.8 °C 42.1 °F /  5.6 °C 30.14in /  1020.5hPa Calm   5mph /  8km/h 86% 0in /  0mm
02:30 46.4 °F /  8 °C 42.1 °F /  5.6 °C 30.14in /  1020.5hPa Calm   2mph /  3.2km/h 85% 0in /  0mm
02:35 46.6 °F /  8.1 °C 42.3 °F /  5.7 °C 30.14in /  1020.5hPa Calm     85% 0in /  0mm
02:40 46.6 °F /  8.1 °C 42.3 °F /  5.7 °C 30.14in /  1020.5hPa Calm     85% 0in /  0mm
02:45 46 °F /  7.8 °C 41.8 °F /  5.4 °C 30.14in /  1020.5hPa Calm     85% 0in /  0mm
02:49 45.7 °F /  7.6 °C 41.7 °F /  5.4 °C 30.14in /  1020.5hPa Calm     86% 0in /  0mm
02:54 45.1 °F /  7.3 °C 41.2 °F /  5.1 °C 30.14in /  1020.5hPa Calm     86% 0in /  0mm
02:59 44.8 °F /  7.1 °C 41.1 °F /  5.1 °C 30.14in /  1020.5hPa Calm     87% 0in /  0mm
03:04 44.4 °F /  6.9 °C 40.8 °F /  4.9 °C 30.15in /  1020.9hPa Calm     87% 0in /  0mm
03:09 44.2 °F /  6.8 °C 40.9 °F /  4.9 °C 30.15in /  1020.9hPa Calm     88% 0in /  0mm
03:14 44.1 °F /  6.7 °C 40.7 °F /  4.8 °C 30.15in /  1020.9hPa Calm     88% 0in /  0mm
03:19 43.9 °F /  6.6 °C 40.6 °F /  4.8 °C 30.15in /  1020.9hPa Calm     88% 0in /  0mm
03:24 43.5 °F /  6.4 °C 40.5 °F /  4.7 °C 30.15in /  1020.9hPa Calm     89% 0in /  0mm
03:29 43.3 °F /  6.3 °C 40.3 °F /  4.6 °C 30.15in /  1020.9hPa Calm     89% 0in /  0mm
03:34 43.2 °F /  6.2 °C 40.4 °F /  4.7 °C 30.14in /  1020.5hPa Calm     90% 0in /  0mm
03:39 43 °F /  6.1 °C 40.2 °F /  4.6 °C 30.14in /  1020.5hPa Calm     90% 0in /  0mm
03:44 42.8 °F /  6 °C 40.1 °F /  4.5 °C 30.14in /  1020.5hPa Calm     90% 0in /  0mm
03:49 42.6 °F /  5.9 °C 39.9 °F /  4.4 °C 30.15in /  1020.9hPa Calm     90% 0in /  0mm
03:54 42.6 °F /  5.9 °C 39.9 °F /  4.4 °C 30.15in /  1020.9hPa Calm     90% 0in /  0mm
03:59 42.4 °F /  5.8 °C 39.7 °F /  4.3 °C 30.15in /  1020.9hPa Calm     90% 0in /  0mm
04:04 42.3 °F /  5.7 °C 39.5 °F /  4.2 °C 30.15in /  1020.9hPa Calm     90% 0in /  0mm
04:09 42.1 °F /  5.6 °C 39.4 °F /  4.1 °C 30.15in /  1020.9hPa Calm     90% 0in /  0mm
04:14 41.9 °F /  5.5 °C 39.5 °F /  4.2 °C 30.15in /  1020.9hPa Calm     91% 0in /  0mm
04:19 41.7 °F /  5.4 °C 39.3 °F /  4.1 °C 30.14in /  1020.5hPa Calm     91% 0in /  0mm
04:24 41.7 °F /  5.4 °C 39.6 °F /  4.2 °C 30.14in /  1020.5hPa Calm     92% 0in /  0mm
04:29 41.9 °F /  5.5 °C 39.7 °F /  4.3 °C 30.14in /  1020.5hPa Calm     92% 0in /  0mm
04:34 41.9 °F /  5.5 °C 39.5 °F /  4.2 °C 30.14in /  1020.5hPa Calm     91% 0in /  0mm
04:39 41.7 °F /  5.4 °C 39.3 °F /  4.1 °C 30.14in /  1020.5hPa Calm     91% 0in /  0mm
04:44 41.5 °F /  5.3 °C 39.1 °F /  3.9 °C 30.14in /  1020.5hPa Calm     91% 0in /  0mm
04:49 41.5 °F /  5.3 °C 39.1 °F /  3.9 °C 30.14in /  1020.5hPa Calm     91% 0in /  0mm
04:54 41.4 °F /  5.2 °C 39.2 °F /  4 °C 30.14in /  1020.5hPa Calm     92% 0in /  0mm
04:59 41.4 °F /  5.2 °C 39.2 °F /  4 °C 30.14in /  1020.5hPa Calm     92% 0in /  0mm
05:04 41.4 °F /  5.2 °C 39.2 °F /  4 °C 30.14in /  1020.5hPa Calm     92% 0in /  0mm
05:09 41.4 °F /  5.2 °C 39.2 °F /  4 °C 30.14in /  1020.5hPa Calm     92% 0in /  0mm
05:14 41.2 °F /  5.1 °C 39 °F /  3.9 °C 30.14in /  1020.5hPa Calm     92% 0in /  0mm
05:19 41 °F /  5 °C 38.9 °F /  3.8 °C 30.14in /  1020.5hPa Calm     92% 0in /  0mm
05:24 40.8 °F /  4.9 °C 38.7 °F /  3.7 °C 30.14in /  1020.5hPa Calm     92% 0in /  0mm
05:29 40.8 °F /  4.9 °C 38.7 °F /  3.7 °C 30.14in /  1020.5hPa Calm     92% 0in /  0mm
05:34 40.6 °F /  4.8 °C 38.5 °F /  3.6 °C 30.14in /  1020.5hPa Calm     92% 0in /  0mm
05:39 40.6 °F /  4.8 °C 38.5 °F /  3.6 °C 30.14in /  1020.5hPa Calm     92% 0in /  0mm
05:44 40.6 °F /  4.8 °C 38.8 °F /  3.8 °C 30.14in /  1020.5hPa Calm     93% 0in /  0mm
05:49 40.6 °F /  4.8 °C 38.8 °F /  3.8 °C 30.14in /  1020.5hPa Calm     93% 0in /  0mm
05:54 40.6 °F /  4.8 °C 38.5 °F /  3.6 °C 30.14in /  1020.5hPa Calm     92% 0in /  0mm
05:59 40.6 °F /  4.8 °C 38.5 °F /  3.6 °C 30.14in /  1020.5hPa Calm     92% 0in /  0mm
06:04 40.5 °F /  4.7 °C 38.3 °F /  3.5 °C 30.14in /  1020.5hPa Calm     92% 0in /  0mm
06:09 40.5 °F /  4.7 °C 38.6 °F /  3.7 °C 30.14in /  1020.5hPa Calm     93% 0in /  0mm
06:14 40.5 °F /  4.7 °C 38.6 °F /  3.7 °C 30.14in /  1020.5hPa Calm     93% 0in /  0mm
06:19 40.3 °F /  4.6 °C 38.1 °F /  3.4 °C 30.14in /  1020.5hPa Calm     92% 0in /  0mm
06:24 40.3 °F /  4.6 °C 38.1 °F /  3.4 °C 30.14in /  1020.5hPa Calm     92% 0in /  0mm
06:29 40.1 °F /  4.5 °C 38 °F /  3.3 °C 30.14in /  1020.5hPa Calm     92% 0in /  0mm
06:34 39.9 °F /  4.4 °C 38.1 °F /  3.4 °C 30.14in /  1020.5hPa Calm     93% 0in /  0mm
06:39 39.9 °F /  4.4 °C 38.1 °F /  3.4 °C 30.14in /  1020.5hPa Calm     93% 0in /  0mm
06:44 39.9 °F /  4.4 °C 38.1 °F /  3.4 °C 30.14in /  1020.5hPa Calm     93% 0in /  0mm
06:49 39.7 °F /  4.3 °C 37.9 °F /  3.3 °C 30.14in /  1020.5hPa Calm     93% 0in /  0mm
06:54 39.7 °F /  4.3 °C 37.9 °F /  3.3 °C 30.14in /  1020.5hPa Calm     93% 0in /  0mm
06:59 39.6 °F /  4.2 °C 37.7 °F /  3.2 °C 30.14in /  1020.5hPa Calm     93% 0in /  0mm
07:04 39.6 °F /  4.2 °C 37.7 °F /  3.2 °C 30.14in /  1020.5hPa Calm     93% 0in /  0mm
07:09 39.6 °F /  4.2 °C 37.7 °F /  3.2 °C 30.14in /  1020.5hPa Calm     93% 0in /  0mm
07:14 39.6 °F /  4.2 °C 37.7 °F /  3.2 °C 30.14in /  1020.5hPa Calm     93% 0in /  0mm
07:19 39.4 °F /  4.1 °C 37.5 °F /  3.1 °C 30.13in /  1020.2hPa Calm     93% 0in /  0mm
07:24 39.4 °F /  4.1 °C 37.5 °F /  3.1 °C 30.13in /  1020.2hPa Calm     93% 0in /  0mm
07:29 39.4 °F /  4.1 °C 37.5 °F /  3.1 °C 30.13in /  1020.2hPa Calm     93% 0in /  0mm
07:34 39.2 °F /  4 °C 37.3 °F /  2.9 °C 30.13in /  1020.2hPa Calm     93% 0in /  0mm
07:39 39.2 °F /  4 °C 37.3 °F /  2.9 °C 30.13in /  1020.2hPa Calm     93% 0in /  0mm
07:44 39.2 °F /  4 °C 37.3 °F /  2.9 °C 30.13in /  1020.2hPa Calm     93% 0in /  0mm
07:49 39.4 °F /  4.1 °C 37.5 °F /  3.1 °C 30.13in /  1020.2hPa Calm     93% 0in /  0mm
07:54 39.4 °F /  4.1 °C 37.5 °F /  3.1 °C 30.13in /  1020.2hPa Calm     93% 0in /  0mm
07:59 39.6 °F /  4.2 °C 37.7 °F /  3.2 °C 30.13in /  1020.2hPa Calm     93% 0in /  0mm
08:04 39.7 °F /  4.3 °C 37.9 °F /  3.3 °C 30.13in /  1020.2hPa Calm     93% 0in /  0mm
08:09 40.1 °F /  4.5 °C 38.2 °F /  3.4 °C 30.13in /  1020.2hPa Calm     93% 0in /  0mm
08:14 40.3 °F /  4.6 °C 38.4 °F /  3.6 °C 30.13in /  1020.2hPa Calm     93% 0in /  0mm
08:19 40.3 °F /  4.6 °C 38.4 °F /  3.6 °C 30.14in /  1020.5hPa Calm     93% 0in /  0mm
08:24 40.5 °F /  4.7 °C 38.6 °F /  3.7 °C 30.14in /  1020.5hPa Calm     93% 0in /  0mm
08:29 40.6 °F /  4.8 °C 38.8 °F /  3.8 °C 30.14in /  1020.5hPa Calm     93% 0in /  0mm
08:34 41 °F /  5 °C 39.1 °F /  3.9 °C 30.13in /  1020.2hPa Calm     93% 0in /  0mm
08:39 41.4 °F /  5.2 °C 39.5 °F /  4.2 °C 30.13in /  1020.2hPa Calm     93% 0in /  0mm
08:44 41.7 °F /  5.4 °C 39.8 °F /  4.3 °C 30.13in /  1020.2hPa Calm     93% 0in /  0mm
08:49 42.3 °F /  5.7 °C 40.4 °F /  4.7 °C 30.14in /  1020.5hPa Calm     93% 0in /  0mm
08:54 42.6 °F /  5.9 °C 40.7 °F /  4.8 °C 30.14in /  1020.5hPa Calm     93% 0in /  0mm
08:59 43.2 °F /  6.2 °C 41.3 °F /  5.2 °C 30.14in /  1020.5hPa Calm     93% 0in /  0mm
09:04 43.5 °F /  6.4 °C 41.6 °F /  5.3 °C 30.14in /  1020.5hPa Calm     93% 0in /  0mm
09:09 43.9 °F /  6.6 °C 42 °F /  5.6 °C 30.14in /  1020.5hPa Calm     93% 0in /  0mm
09:14 44.2 °F /  6.8 °C 42.3 °F /  5.7 °C 30.14in /  1020.5hPa Calm     93% 0in /  0mm
09:19 45 °F /  7.2 °C 43.1 °F /  6.2 °C 30.14in /  1020.5hPa Calm     93% 0in /  0mm
09:24 45.3 °F /  7.4 °C 43.4 °F /  6.3 °C 30.14in /  1020.5hPa Calm     93% 0in /  0mm
09:29 45.9 °F /  7.7 °C 44 °F /  6.7 °C 30.14in /  1020.5hPa Calm     93% 0in /  0mm
09:34 46.6 °F /  8.1 °C 44.7 °F /  7.1 °C 30.14in /  1020.5hPa Calm     93% 0in /  0mm
09:39 47.3 °F /  8.5 °C 45.4 °F /  7.4 °C 30.14in /  1020.5hPa Calm     93% 0in /  0mm
09:44 48 °F /  8.9 °C 45.8 °F /  7.7 °C 30.14in /  1020.5hPa Calm     92% 0in /  0mm
09:49 49.1 °F /  9.5 °C 46.3 °F /  7.9 °C 30.14in /  1020.5hPa Calm     90% 0in /  0mm
09:54 50 °F /  10 °C 46 °F /  7.8 °C 30.14in /  1020.5hPa Calm     86% 0in /  0mm
09:59 50.7 °F /  10.4 °C 46.1 °F /  7.8 °C 30.14in /  1020.5hPa NNW 2.4mph /  3.9km/h   84% 0in /  0mm
10:04 51.4 °F /  10.8 °C 46.1 °F /  7.8 °C 30.15in /  1020.9hPa Calm     82% 0in /  0mm
10:09 52 °F /  11.1 °C 46 °F /  7.8 °C 30.15in /  1020.9hPa North 2.3mph /  3.7km/h   80% 0in /  0mm
10:14 52.3 °F /  11.3 °C 46.4 °F /  8 °C 30.15in /  1020.9hPa Calm     80% 0in /  0mm
10:19 52.9 °F /  11.6 °C 46.5 °F /  8.1 °C 30.14in /  1020.5hPa Calm     79% 0in /  0mm
10:24 53.1 °F /  11.7 °C 46.7 °F /  8.2 °C 30.14in /  1020.5hPa Calm     79% 0in /  0mm
10:29 53.4 °F /  11.9 °C 46.4 °F /  8 °C 30.14in /  1020.5hPa Calm     77% 0in /  0mm
10:34 54 °F /  12.2 °C 46.6 °F /  8.1 °C 30.14in /  1020.5hPa North 2.3mph /  3.7km/h   76% 0in /  0mm
10:39 54.3 °F /  12.4 °C 46.9 °F /  8.3 °C 30.14in /  1020.5hPa NNW 2.4mph /  3.9km/h   76% 0in /  0mm
10:44 54.9 °F /  12.7 °C 48.1 °F /  8.9 °C 30.14in /  1020.5hPa Calm     78% 0in /  0mm
10:49 55.4 °F /  13 °C 47.6 °F /  8.7 °C 30.15in /  1020.9hPa NNE 3.5mph /  5.6km/h   75% 0in /  0mm
10:54 55.9 °F /  13.3 °C 48.8 °F /  9.3 °C 30.15in /  1020.9hPa North 2.3mph /  3.7km/h   77% 0in /  0mm
10:59 56.3 °F /  13.5 °C 48.8 °F /  9.3 °C 30.15in /  1020.9hPa Calm     76% 0in /  0mm
11:04 56.5 °F /  13.6 °C 49 °F /  9.4 °C 30.14in /  1020.5hPa North 2.9mph /  4.7km/h   76% 0in /  0mm
11:09 56.8 °F /  13.8 °C 48.6 °F /  9.2 °C 30.14in /  1020.5hPa NNW 3.1mph /  5km/h   74% 0in /  0mm
11:14 56.8 °F /  13.8 °C 49 °F /  9.4 °C 30.14in /  1020.5hPa Calm     75% 0in /  0mm
11:19 57.2 °F /  14 °C 49.3 °F /  9.6 °C 30.14in /  1020.5hPa Calm     75% 0in /  0mm
11:24 57.4 °F /  14.1 °C 48.8 °F /  9.3 °C 30.14in /  1020.5hPa Calm     73% 0in /  0mm
11:29 57.4 °F /  14.1 °C 48.4 °F /  9.1 °C 30.14in /  1020.5hPa Calm     72% 0in /  0mm
11:34 57.7 °F /  14.3 °C 48 °F /  8.9 °C 30.14in /  1020.5hPa NNW 2.3mph /  3.7km/h   70% 0in /  0mm
11:39 57.9 °F /  14.4 °C 47.4 °F /  8.6 °C 30.14in /  1020.5hPa NNE 2.3mph /  3.7km/h   68% 0in /  0mm
11:44 57.9 °F /  14.4 °C 47.4 °F /  8.6 °C 30.14in /  1020.5hPa NE 2.3mph /  3.7km/h   68% 0in /  0mm
11:49 58.3 °F /  14.6 °C 49.3 °F /  9.6 °C 30.14in /  1020.5hPa Calm     72% 0in /  0mm
11:54 58.6 °F /  14.8 °C 50 °F /  10 °C 30.14in /  1020.5hPa Calm     73% 0in /  0mm
11:59 59 °F /  15 °C 49.6 °F /  9.8 °C 30.14in /  1020.5hPa Calm     71% 0in /  0mm
12:04 59.2 °F /  15.1 °C 49 °F /  9.4 °C 30.14in /  1020.5hPa Calm     69% 0in /  0mm
12:09 59.2 °F /  15.1 °C 49.8 °F /  9.9 °C 30.14in /  1020.5hPa Calm     71% 0in /  0mm
12:14 59.4 °F /  15.2 °C 48 °F /  8.9 °C 30.14in /  1020.5hPa Calm     66% 0in /  0mm
12:19 59.7 °F /  15.4 °C 48.3 °F /  9.1 °C 30.13in /  1020.2hPa NNE 1.2mph /  1.9km/h   66% 0in /  0mm
12:24 59.9 °F /  15.5 °C 48.5 °F /  9.2 °C 30.13in /  1020.2hPa NNW 3.5mph /  5.6km/h   66% 0in /  0mm
12:29 60.1 °F /  15.6 °C 48.7 °F /  9.3 °C 30.13in /  1020.2hPa North 4.6mph /  7.4km/h 1.4mph /  2.3km/h 66% 0in /  0mm
12:34 60.3 °F /  15.7 °C 49.3 °F /  9.6 °C 30.13in /  1020.2hPa North 2.4mph /  3.9km/h 1.4mph /  2.3km/h 67% 0in /  0mm
12:39 60.4 °F /  15.8 °C 49 °F /  9.4 °C 30.13in /  1020.2hPa NNE 4.6mph /  7.4km/h 1.4mph /  2.3km/h 66% 0in /  0mm
12:44 60.6 °F /  15.9 °C 47.9 °F /  8.8 °C 30.13in /  1020.2hPa North 4.6mph /  7.4km/h 1.4mph /  2.3km/h 63% 0in /  0mm
12:49 60.6 °F /  15.9 °C 47.9 °F /  8.8 °C 30.12in /  1019.9hPa Calm   1.4mph /  2.3km/h 63% 0in /  0mm
12:54 60.8 °F /  16 °C 48.1 °F /  8.9 °C 30.12in /  1019.9hPa Calm   1.4mph /  2.3km/h 63% 0in /  0mm
12:59 61 °F /  16.1 °C 48.7 °F /  9.3 °C 30.12in /  1019.9hPa North 4.6mph /  7.4km/h 1.4mph /  2.3km/h 64% 0in /  0mm
13:04 61.2 °F /  16.2 °C 48.9 °F /  9.4 °C 30.12in /  1019.9hPa North 5.8mph /  9.3km/h 1.4mph /  2.3km/h 64% 0in /  0mm
13:09 61.2 °F /  16.2 °C 49.3 °F /  9.6 °C 30.12in /  1019.9hPa Calm   1.8mph /  2.9km/h 65% 0in /  0mm
13:14 61.2 °F /  16.2 °C 47.2 °F /  8.4 °C 30.12in /  1019.9hPa NNE 4.6mph /  7.4km/h 1.8mph /  2.9km/h 60% 0in /  0mm
13:19 61.2 °F /  16.2 °C 48.9 °F /  9.4 °C 30.12in /  1019.9hPa Calm   1.8mph /  2.9km/h 64% 0in /  0mm
13:24 61.3 °F /  16.3 °C 49.1 °F /  9.5 °C 30.12in /  1019.9hPa Calm   1.8mph /  2.9km/h 64% 0in /  0mm
13:29 61.5 °F /  16.4 °C 47.5 °F /  8.6 °C 30.12in /  1019.9hPa NNE 5.8mph /  9.3km/h   60% 0in /  0mm
13:34 61.5 °F /  16.4 °C 48.4 °F /  9.1 °C 30.11in /  1019.5hPa North 5.2mph /  8.4km/h   62% 0in /  0mm
13:39 61.3 °F /  16.3 °C 48.2 °F /  9 °C 30.11in /  1019.5hPa NE 4.6mph /  7.4km/h 2mph /  3.2km/h 62% 0in /  0mm
13:44 61.3 °F /  16.3 °C 48.6 °F /  9.2 °C 30.11in /  1019.5hPa NNW 2.3mph /  3.7km/h 2mph /  3.2km/h 63% 0in /  0mm
13:49 61.2 °F /  16.2 °C 48 °F /  8.9 °C 30.11in /  1019.5hPa NW 5.2mph /  8.4km/h 1.8mph /  2.9km/h 62% 0in /  0mm
13:54 61.2 °F /  16.2 °C 48 °F /  8.9 °C 30.11in /  1019.5hPa NNW 5.8mph /  9.3km/h 1.8mph /  2.9km/h 62% 0in /  0mm
13:59 61 °F /  16.1 °C 48.3 °F /  9.1 °C 30.11in /  1019.5hPa NNW 4.3mph /  6.9km/h 2.9mph /  4.7km/h 63% 0in /  0mm
14:04 61 °F /  16.1 °C 47.9 °F /  8.8 °C 30.11in /  1019.5hPa North 5.8mph /  9.3km/h 2.9mph /  4.7km/h 62% 0in /  0mm
14:09 61 °F /  16.1 °C 48.3 °F /  9.1 °C 30.11in /  1019.5hPa NNW 4mph /  6.4km/h 1.8mph /  2.9km/h 63% 0in /  0mm
14:14 60.8 °F /  16 °C 48.1 °F /  8.9 °C 30.11in /  1019.5hPa Calm   1.8mph /  2.9km/h 63% 0in /  0mm
14:19 60.8 °F /  16 °C 48.1 °F /  8.9 °C 30.10in /  1019.2hPa NNW 4.6mph /  7.4km/h   63% 0in /  0mm
14:24 61 °F /  16.1 °C 48.7 °F /  9.3 °C 30.10in /  1019.2hPa ESE 1.2mph /  1.9km/h   64% 0in /  0mm
14:29 60.8 °F /  16 °C 47.7 °F /  8.7 °C 30.10in /  1019.2hPa North 6.9mph /  11.1km/h 1.8mph /  2.9km/h 62% 0in /  0mm
14:34 60.8 °F /  16 °C 47.7 °F /  8.7 °C 30.10in /  1019.2hPa NNE 4.3mph /  6.9km/h 1.8mph /  2.9km/h 62% 0in /  0mm
14:39 60.6 °F /  15.9 °C 47.9 °F /  8.8 °C 30.10in /  1019.2hPa NNW 3.5mph /  5.6km/h 2mph /  3.2km/h 63% 0in /  0mm
14:44 60.8 °F /  16 °C 49 °F /  9.4 °C 30.10in /  1019.2hPa Calm   2mph /  3.2km/h 65% 0in /  0mm
14:49 60.8 °F /  16 °C 50.2 °F /  10.1 °C 30.10in /  1019.2hPa North 2.3mph /  3.7km/h   68% 0in /  0mm
14:54 60.8 °F /  16 °C 49.4 °F /  9.7 °C 30.10in /  1019.2hPa North 5.2mph /  8.4km/h   66% 0in /  0mm
14:59 60.8 °F /  16 °C 50.6 °F /  10.3 °C 30.10in /  1019.2hPa Calm   1.8mph /  2.9km/h 69% 0in /  0mm
15:04 60.8 °F /  16 °C 49.4 °F /  9.7 °C 30.09in /  1018.8hPa North 3.6mph /  5.8km/h 1.8mph /  2.9km/h 66% 0in /  0mm
15:09 61 °F /  16.1 °C 50.3 °F /  10.2 °C 30.09in /  1018.8hPa SSW 3.5mph /  5.6km/h 1.8mph /  2.9km/h 68% 0in /  0mm
15:14 60.6 °F /  15.9 °C 50.4 °F /  10.2 °C 30.09in /  1018.8hPa Calm   1.8mph /  2.9km/h 69% 0in /  0mm
15:19 60.6 °F /  15.9 °C 49.6 °F /  9.8 °C 30.09in /  1018.8hPa NNE 5.2mph /  8.4km/h 1.4mph /  2.3km/h 67% 0in /  0mm
15:24 60.6 °F /  15.9 °C 49.6 °F /  9.8 °C 30.09in /  1018.8hPa North 6.4mph /  10.3km/h 1.4mph /  2.3km/h 67% 0in /  0mm
15:29 60.6 °F /  15.9 °C 49.6 °F /  9.8 °C 30.09in /  1018.8hPa NNE 6.9mph /  11.1km/h 2.4mph /  3.9km/h 67% 0in /  0mm
15:34 60.4 °F /  15.8 °C 49.8 °F /  9.9 °C 30.09in /  1018.8hPa North 3.5mph /  5.6km/h 2.4mph /  3.9km/h 68% 0in /  0mm
15:39 60.4 °F /  15.8 °C 49.4 °F /  9.7 °C 30.09in /  1018.8hPa NNW 5.4mph /  8.7km/h 1.8mph /  2.9km/h 67% 0in /  0mm
15:44 60.4 °F /  15.8 °C 49.4 °F /  9.7 °C 30.09in /  1018.8hPa NW 5.8mph /  9.3km/h 1.8mph /  2.9km/h 67% 0in /  0mm
15:49 60.3 °F /  15.7 °C 50 °F /  10 °C 30.09in /  1018.8hPa North 4.3mph /  6.9km/h 2.9mph /  4.7km/h 69% 0in /  0mm
15:54 60.3 °F /  15.7 °C 50 °F /  10 °C 30.09in /  1018.8hPa NNE 3.5mph /  5.6km/h 2.9mph /  4.7km/h 69% 0in /  0mm
15:59 60.3 °F /  15.7 °C 49.7 °F /  9.8 °C 30.09in /  1018.8hPa NNW 3.5mph /  5.6km/h 1.8mph /  2.9km/h 68% 0in /  0mm
16:04 60.1 °F /  15.6 °C 50.3 °F /  10.2 °C 30.09in /  1018.8hPa SW 4.6mph /  7.4km/h 1.8mph /  2.9km/h 70% 0in /  0mm
16:09 60.1 °F /  15.6 °C 49.9 °F /  9.9 °C 30.09in /  1018.8hPa North 4.6mph /  7.4km/h 1.8mph /  2.9km/h 69% 0in /  0mm
16:14 60.1 °F /  15.6 °C 49.9 °F /  9.9 °C 30.09in /  1018.8hPa North 5.8mph /  9.3km/h 1.8mph /  2.9km/h 69% 0in /  0mm
16:19 60.1 °F /  15.6 °C 50.3 °F /  10.2 °C 30.09in /  1018.8hPa North 4.6mph /  7.4km/h 1.8mph /  2.9km/h 70% 0in /  0mm
16:24 60.1 °F /  15.6 °C 50.6 °F /  10.3 °C 30.09in /  1018.8hPa North 3.5mph /  5.6km/h 1.8mph /  2.9km/h 71% 0in /  0mm
16:29 60.1 °F /  15.6 °C 50.3 °F /  10.2 °C 30.09in /  1018.8hPa North 3.1mph /  5km/h 2mph /  3.2km/h 70% 0in /  0mm
16:34 59.9 °F /  15.5 °C 50.1 °F /  10.1 °C 30.10in /  1019.2hPa NNE 5.8mph /  9.3km/h 2mph /  3.2km/h 70% 0in /  0mm
16:39 59.9 °F /  15.5 °C 49.7 °F /  9.8 °C 30.10in /  1019.2hPa NNW 5.8mph /  9.3km/h 1.4mph /  2.3km/h 69% 0in /  0mm
16:44 59.7 °F /  15.4 °C 49.5 °F /  9.7 °C 30.10in /  1019.2hPa North 6.2mph /  10km/h 1.4mph /  2.3km/h 69% 0in /  0mm
16:49 59.5 °F /  15.3 °C 49.7 °F /  9.8 °C 30.09in /  1018.8hPa WNW 6.9mph /  11.1km/h 2.4mph /  3.9km/h 70% 0in /  0mm
16:54 59.4 °F /  15.2 °C 49.2 °F /  9.6 °C 30.09in /  1018.8hPa NW 4.6mph /  7.4km/h 2.4mph /  3.9km/h 69% 0in /  0mm
16:59 59.4 °F /  15.2 °C 50.3 °F /  10.2 °C 30.09in /  1018.8hPa NW 2.3mph /  3.7km/h 2mph /  3.2km/h 72% 0in /  0mm
17:04 59.2 °F /  15.1 °C 49.8 °F /  9.9 °C 30.09in /  1018.8hPa SSW 2.3mph /  3.7km/h 2mph /  3.2km/h 71% 0in /  0mm
17:09 59 °F /  15 °C 49.6 °F /  9.8 °C 30.09in /  1018.8hPa SW 2.3mph /  3.7km/h 1.4mph /  2.3km/h 71% 0in /  0mm
17:14 58.6 °F /  14.8 °C 48.9 °F /  9.4 °C 30.09in /  1018.8hPa NW 2.3mph /  3.7km/h 1.4mph /  2.3km/h 70% 0in /  0mm
17:19 58.5 °F /  14.7 °C 49.5 °F /  9.7 °C 30.09in /  1018.8hPa SW 2.3mph /  3.7km/h   72% 0in /  0mm
17:24 58.1 °F /  14.5 °C 48 °F /  8.9 °C 30.09in /  1018.8hPa WNW 2.3mph /  3.7km/h   69% 0in /  0mm
17:29 57.9 °F /  14.4 °C 48.2 °F /  9 °C 30.09in /  1018.8hPa Calm     70% 0in /  0mm
17:34 57.6 °F /  14.2 °C 48.6 °F /  9.2 °C 30.09in /  1018.8hPa NNW 2.3mph /  3.7km/h   72% 0in /  0mm
17:39 57 °F /  13.9 °C 47.7 °F /  8.7 °C 30.09in /  1018.8hPa NW 4.6mph /  7.4km/h   71% 0in /  0mm
17:44 56.8 °F /  13.8 °C 47.9 °F /  8.8 °C 30.09in /  1018.8hPa Calm     72% 0in /  0mm
17:49 56.5 °F /  13.6 °C 48.3 °F /  9.1 °C 30.09in /  1018.8hPa Calm     74% 0in /  0mm
17:54 56.1 °F /  13.4 °C 48.3 °F /  9.1 °C 30.09in /  1018.8hPa Calm     75% 0in /  0mm
17:59 55.8 °F /  13.2 °C 48 °F /  8.9 °C 30.09in /  1018.8hPa Calm     75% 0in /  0mm
18:04 55.4 °F /  13 °C 47.6 °F /  8.7 °C 30.09in /  1018.8hPa Calm     75% 0in /  0mm
18:09 55.2 °F /  12.9 °C 47.8 °F /  8.8 °C 30.09in /  1018.8hPa Calm     76% 0in /  0mm
18:14 54.9 °F /  12.7 °C 47.1 °F /  8.4 °C 30.09in /  1018.8hPa Calm     75% 0in /  0mm
18:19 54.7 °F /  12.6 °C 46.9 °F /  8.3 °C 30.08in /  1018.5hPa Calm     75% 0in /  0mm
18:24 54.3 °F /  12.4 °C 46.6 °F /  8.1 °C 30.08in /  1018.5hPa Calm     75% 0in /  0mm
18:29 54.1 °F /  12.3 °C 46.7 °F /  8.2 °C 30.08in /  1018.5hPa Calm     76% 0in /  0mm
18:34 54 °F /  12.2 °C 46.6 °F /  8.1 °C 30.08in /  1018.5hPa Calm     76% 0in /  0mm
18:39 53.8 °F /  12.1 °C 46.7 °F /  8.2 °C 30.08in /  1018.5hPa Calm     77% 0in /  0mm
18:44 53.6 °F /  12 °C 46.9 °F /  8.3 °C 30.08in /  1018.5hPa Calm     78% 0in /  0mm
18:49 53.4 °F /  11.9 °C 46.7 °F /  8.2 °C 30.09in /  1018.8hPa Calm     78% 0in /  0mm
18:54 53.2 °F /  11.8 °C 46.9 °F /  8.3 °C 30.09in /  1018.8hPa Calm     79% 0in /  0mm
18:59 53.1 °F /  11.7 °C 47.1 °F /  8.4 °C 30.09in /  1018.8hPa Calm     80% 0in /  0mm
19:04 52.9 °F /  11.6 °C 46.9 °F /  8.3 °C 30.09in /  1018.8hPa Calm     80% 0in /  0mm
19:09 52.5 °F /  11.4 °C 46.5 °F /  8.1 °C 30.09in /  1018.8hPa Calm     80% 0in /  0mm
19:14 52.3 °F /  11.3 °C 46.4 °F /  8 °C 30.09in /  1018.8hPa Calm     80% 0in /  0mm
19:19 52.3 °F /  11.3 °C 46.4 °F /  8 °C 30.10in /  1019.2hPa Calm     80% 0in /  0mm
19:24 52.2 °F /  11.2 °C 46.2 °F /  7.9 °C 30.10in /  1019.2hPa Calm     80% 0in /  0mm
19:29 52 °F /  11.1 °C 46 °F /  7.8 °C 30.10in /  1019.2hPa Calm     80% 0in /  0mm
19:34 51.8 °F /  11 °C 46.2 °F /  7.9 °C 30.10in /  1019.2hPa Calm     81% 0in /  0mm
19:39 51.6 °F /  10.9 °C 46 °F /  7.8 °C 30.10in /  1019.2hPa Calm     81% 0in /  0mm
19:44 51.4 °F /  10.8 °C 46.1 °F /  7.8 °C 30.10in /  1019.2hPa Calm     82% 0in /  0mm
19:49 51.3 °F /  10.7 °C 46 °F /  7.8 °C 30.10in /  1019.2hPa Calm     82% 0in /  0mm
19:54 50.9 °F /  10.5 °C 45.9 °F /  7.7 °C 30.10in /  1019.2hPa Calm     83% 0in /  0mm
19:59 50.7 °F /  10.4 °C 45.7 °F /  7.6 °C 30.10in /  1019.2hPa Calm     83% 0in /  0mm
20:04 50.4 °F /  10.2 °C 45.4 °F /  7.4 °C 30.11in /  1019.5hPa Calm     83% 0in /  0mm
20:09 50 °F /  10 °C 45 °F /  7.2 °C 30.11in /  1019.5hPa Calm     83% 0in /  0mm
20:14 49.6 °F /  9.8 °C 45 °F /  7.2 °C 30.11in /  1019.5hPa Calm     84% 0in /  0mm
20:19 49.3 °F /  9.6 °C 44.6 °F /  7 °C 30.11in /  1019.5hPa Calm     84% 0in /  0mm
20:24 48.9 °F /  9.4 °C 44.6 °F /  7 °C 30.11in /  1019.5hPa Calm     85% 0in /  0mm
20:29 48.7 °F /  9.3 °C 44.7 °F /  7.1 °C 30.11in /  1019.5hPa Calm     86% 0in /  0mm
20:34 48.4 °F /  9.1 °C 44.4 °F /  6.9 °C 30.11in /  1019.5hPa Calm     86% 0in /  0mm
20:39 48 °F /  8.9 °C 43.7 °F /  6.5 °C 30.11in /  1019.5hPa Calm     85% 0in /  0mm
20:44 47.8 °F /  8.8 °C 44.2 °F /  6.8 °C 30.11in /  1019.5hPa Calm     87% 0in /  0mm
20:49 47.5 °F /  8.6 °C 43.8 °F /  6.6 °C 30.11in /  1019.5hPa Calm     87% 0in /  0mm
20:54 47.3 °F /  8.5 °C 43.6 °F /  6.4 °C 30.11in /  1019.5hPa Calm     87% 0in /  0mm
20:59 46.9 °F /  8.3 °C 43.3 °F /  6.3 °C 30.11in /  1019.5hPa Calm     87% 0in /  0mm
21:04 46.8 °F /  8.2 °C 43.1 °F /  6.2 °C 30.11in /  1019.5hPa Calm     87% 0in /  0mm
21:09 46.6 °F /  8.1 °C 43.2 °F /  6.2 °C 30.11in /  1019.5hPa Calm     88% 0in /  0mm
21:14 46.2 °F /  7.9 °C 42.9 °F /  6.1 °C 30.11in /  1019.5hPa Calm     88% 0in /  0mm
21:19 46 °F /  7.8 °C 42.7 °F /  5.9 °C 30.12in /  1019.9hPa Calm     88% 0in /  0mm
21:24 45.9 °F /  7.7 °C 42.8 °F /  6 °C 30.12in /  1019.9hPa Calm     89% 0in /  0mm
21:29 45.9 °F /  7.7 °C 42.8 °F /  6 °C 30.12in /  1019.9hPa Calm     89% 0in /  0mm
21:34 45.5 °F /  7.5 °C 42.4 °F /  5.8 °C 30.12in /  1019.9hPa Calm     89% 0in /  0mm
21:39 45.3 °F /  7.4 °C 42.6 °F /  5.9 °C 30.12in /  1019.9hPa Calm     90% 0in /  0mm
21:44 45.3 °F /  7.4 °C 42.8 °F /  6 °C 30.12in /  1019.9hPa Calm     91% 0in /  0mm
21:49 45.3 °F /  7.4 °C 43.1 °F /  6.2 °C 30.13in /  1020.2hPa Calm     92% 0in /  0mm
21:54 45.7 °F /  7.6 °C 43.5 °F /  6.4 °C 30.13in /  1020.2hPa Calm     92% 0in /  0mm
21:59 45.9 °F /  7.7 °C 43.7 °F /  6.5 °C 30.13in /  1020.2hPa Calm     92% 0in /  0mm
22:04 46 °F /  7.8 °C 43.8 °F /  6.6 °C 30.13in /  1020.2hPa Calm     92% 0in /  0mm
22:09 46.2 °F /  7.9 °C 43.7 °F /  6.5 °C 30.13in /  1020.2hPa Calm     91% 0in /  0mm
22:14 46 °F /  7.8 °C 43.3 °F /  6.3 °C 30.13in /  1020.2hPa Calm     90% 0in /  0mm
22:19 46 °F /  7.8 °C 43.3 °F /  6.3 °C 30.13in /  1020.2hPa Calm     90% 0in /  0mm
22:24 45.7 °F /  7.6 °C 42.6 °F /  5.9 °C 30.13in /  1020.2hPa Calm     89% 0in /  0mm
22:29 45.5 °F /  7.5 °C 42.7 °F /  5.9 °C 30.13in /  1020.2hPa Calm     90% 0in /  0mm
22:34 45.3 °F /  7.4 °C 42.6 °F /  5.9 °C 30.13in /  1020.2hPa Calm     90% 0in /  0mm
22:39 45.3 °F /  7.4 °C 42.8 °F /  6 °C 30.13in /  1020.2hPa Calm     91% 0in /  0mm
22:44 45.1 °F /  7.3 °C 42.4 °F /  5.8 °C 30.13in /  1020.2hPa Calm     90% 0in /  0mm
22:49 45 °F /  7.2 °C 42.2 °F /  5.7 °C 30.14in /  1020.5hPa Calm     90% 0in /  0mm
22:54 44.8 °F /  7.1 °C 42 °F /  5.6 °C 30.14in /  1020.5hPa Calm     90% 0in /  0mm
22:59 44.4 °F /  6.9 °C 41.7 °F /  5.4 °C 30.14in /  1020.5hPa Calm     90% 0in /  0mm
23:04 44.4 °F /  6.9 °C 42 °F /  5.6 °C 30.14in /  1020.5hPa Calm     91% 0in /  0mm
23:09 44.2 °F /  6.8 °C 41.8 °F /  5.4 °C 30.14in /  1020.5hPa Calm     91% 0in /  0mm
23:14 44.2 °F /  6.8 °C 41.8 °F /  5.4 °C 30.14in /  1020.5hPa Calm     91% 0in /  0mm
23:19 44.1 °F /  6.7 °C 41.6 °F /  5.3 °C 30.14in /  1020.5hPa Calm     91% 0in /  0mm
23:24 44.1 °F /  6.7 °C 41.3 °F /  5.2 °C 30.14in /  1020.5hPa Calm     90% 0in /  0mm
23:29 43.9 °F /  6.6 °C 41.1 °F /  5.1 °C 30.14in /  1020.5hPa Calm     90% 0in /  0mm
23:34 43.5 °F /  6.4 °C 40.8 °F /  4.9 °C 30.14in /  1020.5hPa Calm     90% 0in /  0mm
23:39 43.3 °F /  6.3 °C 40.6 °F /  4.8 °C 30.14in /  1020.5hPa Calm     90% 0in /  0mm
23:44 43.2 °F /  6.2 °C 40.7 °F /  4.8 °C 30.14in /  1020.5hPa Calm     91% 0in /  0mm
23:49 43 °F /  6.1 °C 40.5 °F /  4.7 °C 30.15in /  1020.9hPa Calm     91% 0in /  0mm
23:54 42.8 °F /  6 °C 40.4 °F /  4.7 °C 30.15in /  1020.9hPa Calm     91% 0in /  0mm
23:59 42.6 °F /  5.9 °C 40.2 °F /  4.6 °C 30.15in /  1020.9hPa Calm     91% 0in /  0mm
Amateur Radio Station WA6MVG